Time;durP1;ratioP1;P1;durP2;ratioP2;P2;SDS_P1;SDS_P2;PMS_P1;PMS_P2;Temp;Humidity;BMP_temperature;BMP_pressure;BME280_temperature;BME280_humidity;BME280_pressure;Samples;Min_cycle;Max_cycle;Signal;HPM_P1;HPM_P2
2023/10/15 00:00:41;;;;;;;;;6.00;6.00;;;;;19.14;100.00;101543.53;2102323;28;46307;-57
2023/10/15 00:01:42;;;;;;;;;3.33;2.33;;;;;19.13;100.00;101542.66;2107269;27;46600;-58
2023/10/15 00:02:44;;;;;;;;;4.67;4.67;;;;;19.13;100.00;101549.88;2114588;27;46384;-57
2023/10/15 00:03:46;;;;;;;;;6.00;4.25;;;;;19.10;100.00;101550.88;2114816;27;46708;-58
2023/10/15 00:04:47;;;;;;;;;6.00;5.25;;;;;19.07;100.00;101551.03;2114658;27;46487;-58
2023/10/15 00:05:47;;;;;;;;;13.00;12.50;;;;;19.04;100.00;101548.44;2114049;27;46744;-58
2023/10/15 00:06:47;;;;;;;;;7.25;6.25;;;;;19.00;100.00;101553.09;2114932;27;46986;-55
2023/10/15 00:07:49;;;;;;;;;3.00;1.00;;;;;18.97;100.00;101555.91;2114205;27;46345;-57
2023/10/15 00:08:50;;;;;;;;;1.25;1.00;;;;;18.97;100.00;101549.66;2114718;27;46358;-56
2023/10/15 00:09:51;;;;;;;;;1.00;1.00;;;;;18.95;100.00;101551.56;2114702;27;47147;-55
2023/10/15 00:10:51;;;;;;;;;3.00;2.00;;;;;18.93;100.00;101551.63;2114610;27;46316;-57
2023/10/15 00:11:51;;;;;;;;;7.25;6.75;;;;;18.96;100.00;101550.59;2112622;27;46214;-56
2023/10/15 00:12:53;;;;;;;;;10.00;7.33;;;;;18.98;100.00;101554.97;2114488;27;45846;-57
2023/10/15 00:13:54;;;;;;;;;9.75;9.25;;;;;18.99;100.00;101553.16;2114257;27;46791;-58
2023/10/15 00:14:54;;;;;;;;;8.25;8.00;;;;;19.01;100.00;101549.47;2114730;27;46625;-55
2023/10/15 00:15:56;;;;;;;;;2.67;2.00;;;;;19.06;100.00;101550.16;2114397;27;46505;-56
2023/10/15 00:16:59;;;;;;;;;2.75;2.75;;;;;19.07;100.00;101546.50;2113899;27;46347;-58
2023/10/15 00:18:07;;;;;;;;;1.00;1.00;;;;;19.06;100.00;101550.16;2114083;27;46831;-58
2023/10/15 00:19:10;;;;;;;;;0.50;0.50;;;;;19.05;100.00;101544.81;2114892;27;46407;-58
2023/10/15 00:20:16;;;;;;;;;1.00;1.00;;;;;19.05;100.00;101547.50;2114299;27;46713;-57
2023/10/15 00:21:16;;;;;;;;;1.00;1.00;;;;;19.04;100.00;101546.63;2114798;27;45120;-56
2023/10/15 00:22:17;;;;;;;;;0.00;0.00;;;;;19.05;100.00;101542.13;2113741;27;46368;-57
2023/10/15 00:23:17;;;;;;;;;2.00;1.00;;;;;19.04;100.00;101538.56;2114251;27;46835;-56
2023/10/15 00:24:18;;;;;;;;;3.00;1.00;;;;;19.04;100.00;101543.94;2114166;27;46682;-58
2023/10/15 00:25:19;;;;;;;;;1.33;1.33;;;;;19.01;100.00;101544.06;2114981;27;46506;-59
2023/10/15 00:26:21;;;;;;;;;0.00;0.00;;;;;19.05;100.00;101537.59;2113884;27;46536;-58
2023/10/15 00:27:21;;;;;;;;;0.75;0.75;;;;;19.04;100.00;101540.38;2111297;27;46792;-57
2023/10/15 00:28:22;;;;;;;;;1.00;0.33;;;;;19.03;100.00;101542.19;2109089;27;46099;-56
2023/10/15 00:29:24;;;;;;;;;1.00;1.00;;;;;19.03;100.00;101547.56;2113347;27;46309;-58
2023/10/15 00:30:34;;;;;;;;;1.00;1.00;;;;;19.04;100.00;101548.44;2114467;27;46657;-57
2023/10/15 00:31:34;;;;;;;;;3.75;3.75;;;;;19.05;100.00;101550.19;2114630;27;46819;-57
2023/10/15 00:32:35;;;;;;;;;1.00;1.00;;;;;19.05;100.00;101544.81;2114513;27;46376;-57
2023/10/15 00:33:37;;;;;;;;;2.33;2.33;;;;;19.05;100.00;101551.06;2114222;27;46843;-58
2023/10/15 00:34:38;;;;;;;;;5.00;3.50;;;;;19.05;100.00;101547.50;2114446;27;46380;-58
2023/10/15 00:35:44;;;;;;;;;5.00;4.00;;;;;19.05;100.00;101556.44;2114714;27;46812;-58
2023/10/15 00:36:44;;;;;;;;;2.75;2.75;;;;;19.06;100.00;101551.97;2114647;27;46544;-58
2023/10/15 00:37:57;;;;;;;;;3.00;2.00;;;;;19.07;100.00;101551.91;2114180;27;46743;-58
2023/10/15 00:38:57;;;;;;;;;3.00;3.00;;;;;19.08;100.00;101545.56;2114646;27;46671;-55
2023/10/15 00:39:59;;;;;;;;;0.33;0.33;;;;;19.08;100.00;101545.56;2114215;27;46991;-57
2023/10/15 00:41:07;;;;;;;;;3.25;3.25;;;;;19.08;100.00;101547.38;2112447;27;46538;-59
2023/10/15 00:42:08;;;;;;;;;1.00;1.00;;;;;19.07;100.00;101551.03;2114435;27;47198;-58
2023/10/15 00:43:09;;;;;;;;;0.67;0.67;;;;;19.05;100.00;101548.38;2113887;27;46714;-58
2023/10/15 00:44:10;;;;;;;;;1.50;1.50;;;;;19.03;100.00;101550.25;2114398;27;46464;-58
2023/10/15 00:45:11;;;;;;;;;1.00;1.00;;;;;19.02;100.00;101548.50;2113084;27;46308;-56
2023/10/15 00:46:13;;;;;;;;;0.67;0.67;;;;;19.00;100.00;101546.84;2114713;27;46271;-58
2023/10/15 00:47:15;;;;;;;;;0.00;0.00;;;;;18.99;100.00;101548.66;2114524;27;46450;-57
2023/10/15 00:48:36;;;;;;;;;1.00;1.00;;;;;19.00;100.00;101550.41;2114351;27;46423;-58
2023/10/15 00:49:38;;;;;;;;;2.75;1.00;;;;;19.00;100.00;101552.22;2114383;27;46599;-55
2023/10/15 00:50:41;;;;;;;;;1.00;1.00;;;;;18.99;100.00;101553.16;2114543;27;46370;-56
2023/10/15 00:51:45;;;;;;;;;2.00;1.00;;;;;18.98;100.00;101551.41;2104840;27;47174;-58
2023/10/15 00:52:48;;;;;;;;;2.00;2.00;;;;;18.98;100.00;101551.41;2104911;28;46701;-58
2023/10/15 00:53:58;;;;;;;;;1.25;1.25;;;;;18.98;100.00;101551.41;2087875;28;46731;-57
2023/10/15 00:54:59;;;;;;;;;0.00;0.00;;;;;18.96;100.00;101548.78;2097966;28;46407;-58
2023/10/15 00:56:04;;;;;;;;;1.00;0.67;;;;;18.97;100.00;101555.91;2106710;27;45517;-59
2023/10/15 00:58:38;;;;;;;;;4.00;4.00;;;;;18.97;100.00;101553.22;2114073;27;46748;-58
2023/10/15 00:59:45;;;;;;;;;4.75;4.25;;;;;18.98;100.00;101554.97;2114359;27;46720;-56
2023/10/15 01:01:54;;;;;;;;;4.25;3.00;;;;;18.99;100.00;101548.66;2114286;27;46180;-57
2023/10/15 01:02:56;;;;;;;;;2.75;2.75;;;;;19.00;100.00;101549.53;2113757;27;46444;-55
2023/10/15 01:03:59;;;;;;;;;3.00;3.00;;;;;19.00;100.00;101549.53;2113536;27;46700;-55
2023/10/15 01:05:00;;;;;;;;;3.25;3.25;;;;;19.00;100.00;101549.53;2114138;27;46807;-58
2023/10/15 01:06:04;;;;;;;;;1.00;0.75;;;;;18.99;100.00;101551.34;2114346;27;46617;-54
2023/10/15 01:07:32;;;;;;;;;2.00;0.50;;;;;18.99;100.00;101548.66;2104321;28;46380;-58
2023/10/15 01:08:35;;;;;;;;;1.25;1.25;;;;;18.99;100.00;101548.66;2100364;28;46426;-58
2023/10/15 01:09:35;;;;;;;;;0.00;0.00;;;;;18.98;100.00;101552.28;2103503;28;46401;-54
2023/10/15 01:10:39;;;;;;;;;3.00;3.00;;;;;18.98;100.00;101552.28;2105036;28;46338;-56
2023/10/15 01:11:51;;;;;;;;;2.00;2.00;;;;;18.97;100.00;101550.53;2104548;28;46515;-58
2023/10/15 01:12:52;;;;;;;;;2.00;1.75;;;;;18.98;100.00;101554.97;2112209;27;46744;-58
2023/10/15 01:13:53;;;;;;;;;1.75;1.50;;;;;18.97;100.00;101555.03;2113211;27;46597;-59
2023/10/15 01:14:54;;;;;;;;;1.50;0.75;;;;;18.97;100.00;101555.91;2113540;27;46501;-59
2023/10/15 01:16:02;;;;;;;;;1.33;1.00;;;;;18.96;100.00;101548.78;2113430;27;46651;-59
2023/10/15 01:17:02;;;;;;;;;5.25;1.25;;;;;18.97;100.00;101550.53;2112270;27;46663;-58
2023/10/15 01:18:07;;;;;;;;;1.00;1.00;;;;;18.98;100.00;101551.41;2113279;27;46879;-58
2023/10/15 01:19:18;;;;;;;;;1.50;1.50;;;;;18.97;100.00;101552.34;2113239;27;46402;-57
2023/10/15 01:20:23;;;;;;;;;0.00;0.00;;;;;18.98;100.00;101546.03;2113339;27;46771;-58
2023/10/15 01:21:30;;;;;;;;;2.00;2.00;;;;;18.96;100.00;101543.41;2113278;27;46371;-58
2023/10/15 01:22:32;;;;;;;;;3.00;1.75;;;;;18.95;100.00;101548.88;2113390;27;46840;-58
2023/10/15 01:23:44;;;;;;;;;0.75;0.75;;;;;18.96;100.00;101553.31;2112769;27;46888;-57
2023/10/15 01:24:53;;;;;;;;;1.25;1.00;;;;;18.92;100.00;101547.16;2111576;27;46997;-57
2023/10/15 01:25:53;;;;;;;;;1.00;1.00;;;;;18.89;100.00;101549.97;2114633;27;46221;-57
2023/10/15 01:28:02;;;;;;;;;1.50;1.50;;;;;18.86;100.00;101551.94;2101680;28;46609;-54
2023/10/15 01:29:06;;;;;;;;;0.00;0.00;;;;;18.84;100.00;101552.00;2107305;27;46144;-58
2023/10/15 01:30:09;;;;;;;;;1.00;1.00;;;;;18.80;100.00;101551.28;2113403;27;46794;-58
2023/10/15 01:31:15;;;;;;;;;0.25;0.25;;;;;18.79;100.00;101545.94;2095372;28;46399;-57
2023/10/15 01:32:30;;;;;;;;;1.00;1.00;;;;;18.78;100.00;101544.19;2097916;27;46386;-56
2023/10/15 01:33:36;;;;;;;;;2.25;2.25;;;;;18.77;100.00;101548.69;2113011;27;46526;-57
2023/10/15 01:34:38;;;;;;;;;1.25;1.25;;;;;18.74;100.00;101546.13;2111866;27;46421;-56
2023/10/15 01:35:38;;;;;;;;;1.50;1.50;;;;;18.73;100.00;101536.31;2113064;27;46601;-57
2023/10/15 01:36:38;;;;;;;;;2.33;2.33;;;;;18.72;100.00;101539.97;2113323;27;46316;-58
2023/10/15 01:37:43;;;;;;;;;3.67;3.67;;;;;18.72;100.00;101536.41;2113256;27;46301;-57
2023/10/15 01:38:44;;;;;;;;;4.00;4.00;;;;;18.71;100.00;101537.34;2113089;27;46570;-57
2023/10/15 01:39:48;;;;;;;;;3.00;3.00;;;;;18.69;100.00;101537.41;2113053;27;46528;-57
2023/10/15 01:40:56;;;;;;;;;2.50;2.50;;;;;18.67;100.00;101535.69;2112772;27;46564;-57
2023/10/15 01:42:03;;;;;;;;;1.25;1.00;;;;;18.64;100.00;101538.53;2113957;27;46359;-57
2023/10/15 01:43:12;;;;;;;;;1.50;1.50;;;;;18.62;100.00;101535.00;2114307;27;46913;-57
2023/10/15 01:44:17;;;;;;;;;2.00;2.00;;;;;18.61;100.00;101528.75;2113158;27;46541;-58
2023/10/15 01:45:30;;;;;;;;;1.00;1.00;;;;;18.61;100.00;101525.19;2113547;27;46646;-58
2023/10/15 01:46:46;;;;;;;;;4.00;4.00;;;;;18.59;100.00;101530.63;2103587;27;46959;-57
2023/10/15 01:48:49;;;;;;;;;1.00;1.00;;;;;18.63;100.00;101537.63;2113846;27;46687;-58
2023/10/15 01:49:53;;;;;;;;;2.50;2.50;;;;;18.63;100.00;101524.19;2113307;27;46958;-56
2023/10/15 01:51:04;;;;;;;;;1.75;1.75;;;;;18.65;100.00;101526.81;2111684;27;46803;-59
2023/10/15 01:52:06;;;;;;;;;1.25;1.25;;;;;18.65;100.00;101529.50;2109599;27;46528;-58
2023/10/15 01:53:06;;;;;;;;;2.75;2.00;;;;;18.64;100.00;101530.47;2114289;27;46768;-56
2023/10/15 01:54:10;;;;;;;;;1.00;1.00;;;;;18.64;100.00;101533.16;2105954;27;46784;-57
2023/10/15 01:55:12;;;;;;;;;2.50;1.50;;;;;18.61;100.00;101527.88;2113155;27;47502;-57
2023/10/15 01:56:17;;;;;;;;;1.00;1.00;;;;;18.61;100.00;101525.19;2112944;27;46949;-55
2023/10/15 01:57:17;;;;;;;;;2.25;2.00;;;;;18.62;100.00;101533.19;2112484;27;46650;-57
2023/10/15 01:58:19;;;;;;;;;3.00;3.00;;;;;18.61;100.00;101530.56;2104866;28;46501;-57
2023/10/15 01:59:19;;;;;;;;;1.50;1.00;;;;;18.58;100.00;101533.38;2104731;27;46581;-58
2023/10/15 02:01:41;;;;;;;;;2.00;2.00;;;;;18.57;100.00;101531.63;2106994;27;47096;-59
2023/10/15 02:02:48;;;;;;;;;2.00;2.00;;;;;18.54;100.00;101532.63;2105676;27;46545;-58
2023/10/15 02:03:48;;;;;;;;;1.50;1.50;;;;;18.55;100.00;101534.41;2112443;27;46822;-58
2023/10/15 02:04:48;;;;;;;;;0.67;0.67;;;;;18.54;100.00;101538.00;2113292;27;46767;-56
2023/10/15 02:05:54;;;;;;;;;3.33;3.00;;;;;18.52;100.00;101540.75;2113447;27;46461;-58
2023/10/15 02:06:55;;;;;;;;;2.00;2.00;;;;;18.52;100.00;101535.38;2112609;27;46693;-58
2023/10/15 02:07:56;;;;;;;;;2.75;2.75;;;;;18.51;100.00;101540.81;2113965;27;46582;-56
2023/10/15 02:08:56;;;;;;;;;1.00;1.00;;;;;18.49;100.00;101542.69;2113818;27;46779;-55
2023/10/15 02:09:56;;;;;;;;;1.00;1.00;;;;;18.51;100.00;101546.19;2113673;27;46470;-58
2023/10/15 02:10:57;;;;;;;;;3.00;1.67;;;;;18.48;100.00;101551.69;2113789;27;46329;-58
2023/10/15 02:11:57;;;;;;;;;0.00;0.00;;;;;18.47;100.00;101552.63;2114029;27;46827;-55
2023/10/15 02:13:04;;;;;;;;;1.00;1.00;;;;;18.45;100.00;101552.72;2113457;27;46543;-57
2023/10/15 02:14:08;;;;;;;;;1.75;1.75;;;;;18.45;100.00;101554.53;2113795;27;46493;-56
2023/10/15 02:15:15;;;;;;;;;1.00;1.00;;;;;18.46;100.00;101543.69;2103802;28;46678;-55
2023/10/15 02:16:17;;;;;;;;;2.00;2.00;;;;;18.45;100.00;101546.47;2105516;27;47171;-56
2023/10/15 02:17:24;;;;;;;;;2.25;2.25;;;;;18.47;100.00;101555.34;2113616;27;46784;-56
2023/10/15 02:18:29;;;;;;;;;2.00;2.00;;;;;18.46;100.00;101551.78;2113418;27;46233;-55
2023/10/15 02:19:40;;;;;;;;;1.50;1.50;;;;;18.45;100.00;101554.53;2114226;27;46035;-57
2023/10/15 02:21:00;;;;;;;;;4.00;2.00;;;;;18.45;100.00;101551.84;2113837;27;46511;-58
2023/10/15 02:22:01;;;;;;;;;1.00;1.00;;;;;18.45;100.00;101555.41;2111662;27;46913;-58
2023/10/15 02:23:02;;;;;;;;;1.50;1.25;;;;;18.44;100.00;101553.66;2113848;27;46827;-57
2023/10/15 02:24:08;;;;;;;;;2.33;2.00;;;;;18.43;100.00;101554.59;2113808;27;46820;-57
2023/10/15 02:25:08;;;;;;;;;1.50;1.50;;;;;18.42;100.00;101563.59;2113690;27;46662;-57
2023/10/15 02:26:09;;;;;;;;;1.00;1.00;;;;;18.41;100.00;101552.88;2113600;27;46519;-58
2023/10/15 02:27:09;;;;;;;;;0.33;0.33;;;;;18.40;100.00;101557.38;2113792;27;46779;-58
2023/10/15 02:28:10;;;;;;;;;2.00;1.00;;;;;18.39;100.00;101558.31;2113585;27;46634;-55
2023/10/15 02:30:32;;;;;;;;;1.25;1.25;;;;;18.37;100.00;101553.94;2105507;28;46887;-55
2023/10/15 02:31:41;;;;;;;;;1.00;1.00;;;;;18.37;100.00;101562.00;2110759;27;46292;-56
2023/10/15 02:32:43;;;;;;;;;1.25;1.25;;;;;18.35;100.00;101553.13;2113814;27;46949;-55
2023/10/15 02:33:43;;;;;;;;;1.25;1.25;;;;;18.33;100.00;101561.28;2113593;27;46758;-58
2023/10/15 02:34:44;;;;;;;;;2.67;2.67;;;;;18.29;100.00;101556.06;2113593;27;46502;-56
2023/10/15 02:35:47;;;;;;;;;2.00;2.00;;;;;18.27;100.00;101555.25;2104785;27;45946;-57
2023/10/15 02:36:48;;;;;;;;;1.00;1.00;;;;;18.24;100.00;101561.63;2113193;27;46920;-57
2023/10/15 02:37:48;;;;;;;;;1.00;1.00;;;;;18.25;100.00;101566.06;2112153;27;46290;-55
2023/10/15 02:38:57;;;;;;;;;0.00;0.00;;;;;18.23;100.00;101565.25;2082011;28;46487;-56
2023/10/15 02:39:59;;;;;;;;;1.75;1.00;;;;;18.25;100.00;101566.06;2082461;28;46875;-58
2023/10/15 02:41:06;;;;;;;;;1.00;1.00;;;;;18.24;100.00;101564.31;2108649;27;46308;-58
2023/10/15 02:42:06;;;;;;;;;1.00;0.00;;;;;18.23;100.00;101568.81;2113167;27;45481;-56
2023/10/15 02:43:07;;;;;;;;;1.00;1.00;;;;;18.23;100.00;101559.88;2112666;27;46588;-58
2023/10/15 02:44:12;;;;;;;;;1.00;1.00;;;;;18.22;100.00;101564.38;2113415;27;46793;-58
2023/10/15 02:45:14;;;;;;;;;2.25;1.00;;;;;18.21;100.00;101565.31;2113748;27;46897;-58
2023/10/15 02:46:25;;;;;;;;;2.00;1.00;;;;;18.20;100.00;101555.50;2113516;27;46332;-56
2023/10/15 02:47:31;;;;;;;;;0.75;0.75;;;;;18.21;100.00;101561.75;2104356;28;46329;-57
2023/10/15 02:48:33;;;;;;;;;0.75;0.75;;;;;18.19;100.00;101552.88;2107088;27;46266;-57
2023/10/15 02:49:53;;;;;;;;;1.00;1.00;;;;;18.21;100.00;101551.88;2113226;27;46603;-58
2023/10/15 02:51:18;;;;;;;;;2.00;2.00;;;;;18.19;100.00;101561.81;2104456;28;46544;-56
2023/10/15 02:52:18;;;;;;;;;1.50;1.50;;;;;18.20;100.00;101560.00;2105534;27;46086;-57
2023/10/15 02:53:23;;;;;;;;;1.25;1.25;;;;;18.18;100.00;101569.94;2113694;27;45847;-56
2023/10/15 02:54:36;;;;;;;;;1.00;1.00;;;;;18.16;100.00;101559.25;2113788;27;46827;-54
2023/10/15 02:55:37;;;;;;;;;1.00;1.00;;;;;18.15;100.00;101560.19;2108904;27;46757;-54
2023/10/15 02:56:37;;;;;;;;;2.00;1.00;;;;;18.14;100.00;101561.13;2111725;27;46727;-57
2023/10/15 02:57:38;;;;;;;;;0.00;0.00;;;;;18.15;100.00;101562.88;2113958;27;46424;-55
2023/10/15 02:58:40;;;;;;;;;0.75;0.75;;;;;18.13;100.00;101566.56;2113079;27;46679;-57
2023/10/15 02:59:50;;;;;;;;;1.50;1.00;;;;;18.12;100.00;101578.22;2113642;27;45217;-57
2023/10/15 03:00:51;;;;;;;;;3.50;2.00;;;;;18.10;100.00;101578.28;2099395;28;46417;-56
2023/10/15 03:01:56;;;;;;;;;1.00;1.00;;;;;18.08;100.00;101574.81;2104052;27;46732;-58
2023/10/15 03:02:58;;;;;;;;;1.75;1.50;;;;;18.08;100.00;101571.25;2113288;27;46971;-57
2023/10/15 03:04:07;;;;;;;;;0.00;0.00;;;;;18.08;100.00;101573.94;2113732;27;45918;-58
2023/10/15 03:05:13;;;;;;;;;1.00;1.00;;;;;18.07;100.00;101574.88;2113216;27;46744;-56
2023/10/15 03:06:18;;;;;;;;;1.50;1.50;;;;;18.05;100.00;101574.94;2113779;27;46746;-57
2023/10/15 03:07:19;;;;;;;;;2.00;1.25;;;;;18.06;100.00;101575.81;2113784;27;46677;-56
2023/10/15 03:08:22;;;;;;;;;1.25;1.25;;;;;18.07;100.00;101581.13;2113347;27;46381;-57
2023/10/15 03:09:26;;;;;;;;;0.50;0.25;;;;;18.07;100.00;101581.13;2113727;27;45628;-56
2023/10/15 03:10:47;;;;;;;;;1.75;1.75;;;;;18.08;100.00;101574.81;2113438;27;46455;-57
2023/10/15 03:11:51;;;;;;;;;2.50;1.00;;;;;18.09;100.00;101579.25;2113517;27;46445;-58
2023/10/15 03:12:52;;;;;;;;;0.00;0.00;;;;;18.09;100.00;101579.25;2110026;27;45875;-58
2023/10/15 03:13:55;;;;;;;;;2.00;1.33;;;;;18.09;100.00;101579.25;2107506;27;46285;-57
2023/10/15 03:14:55;;;;;;;;;1.25;0.75;;;;;18.07;100.00;101583.81;2111287;27;46373;-56
2023/10/15 03:15:57;;;;;;;;;2.00;2.00;;;;;18.05;100.00;101583.00;2112995;27;46217;-55
2023/10/15 03:16:58;;;;;;;;;1.00;1.00;;;;;18.04;100.00;101581.25;2105496;28;46543;-57
2023/10/15 03:17:58;;;;;;;;;1.33;1.33;;;;;18.03;100.00;101587.53;2105811;28;46227;-57
2023/10/15 03:21:25;;;;;;;;;4.00;2.00;;;;;17.98;100.00;101569.84;2111872;27;46490;-54
2023/10/15 03:22:25;;;;;;;;;1.75;1.75;;;;;17.97;100.00;101581.53;2114769;27;46984;-57
2023/10/15 03:23:29;;;;;;;;;3.00;1.25;;;;;17.96;100.00;101575.28;2114842;27;46352;-57
2023/10/15 03:24:33;;;;;;;;;1.67;1.67;;;;;17.93;100.00;101575.41;2114476;27;46437;-57
2023/10/15 03:25:34;;;;;;;;;1.75;1.00;;;;;17.90;100.00;101573.69;2114444;27;46751;-56
2023/10/15 03:26:34;;;;;;;;;1.33;1.33;;;;;17.90;100.00;101572.81;2114866;27;46406;-57
2023/10/15 03:27:36;;;;;;;;;2.67;2.67;;;;;17.90;100.00;101580.88;2109957;27;46595;-57
2023/10/15 03:28:44;;;;;;;;;2.00;1.75;;;;;17.90;100.00;101579.06;2105653;28;46634;-55
2023/10/15 03:29:44;;;;;;;;;4.00;2.25;;;;;17.90;100.00;101580.88;2112174;27;46539;-55
2023/10/15 03:30:45;;;;;;;;;1.00;1.00;;;;;17.90;100.00;101586.25;2114986;27;46295;-57
2023/10/15 03:31:47;;;;;;;;;3.00;3.00;;;;;17.89;100.00;101577.31;2113897;27;46256;-58
2023/10/15 03:32:48;;;;;;;;;1.75;0.75;;;;;17.87;100.00;101581.00;2114900;27;46467;-57
2023/10/15 03:35:16;;;;;;;;;3.00;2.50;;;;;17.82;100.00;101593.72;2114956;27;46625;-57
2023/10/15 03:36:17;;;;;;;;;1.25;1.25;;;;;17.80;100.00;101590.22;2114670;27;47340;-56
2023/10/15 03:37:22;;;;;;;;;2.00;2.00;;;;;17.81;100.00;101594.66;2114967;27;46590;-56
2023/10/15 03:38:33;;;;;;;;;3.00;2.00;;;;;17.81;100.00;101590.19;2114607;27;46473;-57
2023/10/15 03:40:46;;;;;;;;;2.33;1.33;;;;;17.81;100.00;101590.19;2115013;27;45200;-57
2023/10/15 03:41:53;;;;;;;;;3.00;3.00;;;;;17.81;100.00;101590.19;2114644;27;46559;-57
2023/10/15 03:42:53;;;;;;;;;1.50;1.50;;;;;17.80;100.00;101595.59;2114671;27;46337;-56
2023/10/15 03:43:53;;;;;;;;;2.00;2.00;;;;;17.81;100.00;101598.22;2114609;27;46825;-56
2023/10/15 03:44:59;;;;;;;;;4.00;3.00;;;;;17.81;100.00;101591.97;2114863;27;46277;-57
2023/10/15 03:46:09;;;;;;;;;4.00;2.25;;;;;17.81;100.00;101591.97;2113122;27;46339;-57
2023/10/15 03:47:09;;;;;;;;;2.00;2.00;;;;;17.78;100.00;101582.22;2114476;27;46631;-56
2023/10/15 03:48:14;;;;;;;;;1.00;1.00;;;;;17.77;100.00;101583.16;2114734;27;46521;-57
2023/10/15 03:49:15;;;;;;;;;2.00;2.00;;;;;17.77;100.00;101582.28;2114932;27;46646;-57
2023/10/15 03:50:15;;;;;;;;;2.67;2.67;;;;;17.76;100.00;101584.09;2115340;27;46782;-56
2023/10/15 03:51:21;;;;;;;;;2.00;2.00;;;;;17.76;100.00;101588.56;2114834;27;46281;-56
2023/10/15 03:52:22;;;;;;;;;3.50;2.75;;;;;17.75;100.00;101586.81;2114295;27;47066;-56
2023/10/15 03:53:35;;;;;;;;;4.67;3.00;;;;;17.74;100.00;101585.94;2115388;27;46307;-57
2023/10/15 03:54:37;;;;;;;;;3.25;1.75;;;;;17.76;100.00;101577.84;2114313;27;46737;-57
2023/10/15 03:55:38;;;;;;;;;3.00;3.00;;;;;17.77;100.00;101591.19;2114677;27;46934;-59
2023/10/15 03:56:43;;;;;;;;;0.00;0.00;;;;;17.77;100.00;101591.19;2114452;27;46635;-56
2023/10/15 03:57:43;;;;;;;;;1.50;1.50;;;;;17.77;100.00;101598.38;2114945;27;46340;-55
2023/10/15 03:58:45;;;;;;;;;3.00;3.00;;;;;17.77;100.00;101595.69;2114177;27;46950;-58
2023/10/15 03:59:52;;;;;;;;;5.00;2.25;;;;;17.75;100.00;101592.19;2114026;27;46941;-57
2023/10/15 04:01:14;;;;;;;;;1.75;1.75;;;;;17.73;100.00;101586.88;2110199;27;46361;-57
2023/10/15 04:02:26;;;;;;;;;1.75;1.75;;;;;17.71;100.00;101591.44;2114176;27;46669;-58
2023/10/15 04:03:28;;;;;;;;;3.75;3.75;;;;;17.71;100.00;101595.94;2113210;27;46909;-57
2023/10/15 04:04:28;;;;;;;;;2.50;2.50;;;;;17.70;100.00;101594.19;2114290;27;46839;-57
2023/10/15 04:05:31;;;;;;;;;1.33;1.33;;;;;17.70;100.00;101599.56;2114312;27;46302;-57
2023/10/15 04:06:34;;;;;;;;;3.00;3.00;;;;;17.68;100.00;101607.63;2114675;27;46413;-57
2023/10/15 04:07:48;;;;;;;;;2.00;2.00;;;;;17.66;100.00;101604.16;2114343;27;46525;-57
2023/10/15 04:10:04;;;;;;;;;1.25;1.00;;;;;17.64;100.00;101604.16;2114762;27;46452;-57
2023/10/15 04:11:06;;;;;;;;;2.25;2.25;;;;;17.63;100.00;101602.41;2114693;27;46959;-56
2023/10/15 04:12:07;;;;;;;;;2.00;2.00;;;;;17.62;100.00;101606.03;2114322;27;46352;-57
2023/10/15 04:13:08;;;;;;;;;2.00;2.00;;;;;17.59;100.00;101603.47;2114371;27;47144;-57
2023/10/15 04:14:28;;;;;;;;;1.75;1.75;;;;;17.60;100.00;101613.28;2114671;27;46699;-57
2023/10/15 04:15:30;;;;;;;;;3.00;2.00;;;;;17.59;100.00;101608.84;2114269;27;47023;-58
2023/10/15 04:16:31;;;;;;;;;2.00;1.75;;;;;17.58;100.00;101608.91;2114538;27;46452;-56
2023/10/15 04:17:33;;;;;;;;;1.75;1.75;;;;;17.57;100.00;101610.72;2114149;27;46408;-56
2023/10/15 04:18:33;;;;;;;;;2.75;2.00;;;;;17.56;100.00;101608.09;2114748;27;46759;-58
2023/10/15 04:19:35;;;;;;;;;4.00;3.00;;;;;17.55;100.00;101622.44;2113781;27;46355;-59
2023/10/15 04:20:42;;;;;;;;;2.75;2.75;;;;;17.53;100.00;101617.13;2114569;27;46420;-55
2023/10/15 04:21:43;;;;;;;;;2.00;2.00;;;;;17.51;100.00;101620.78;2114235;27;46507;-55
2023/10/15 04:22:51;;;;;;;;;1.00;0.00;;;;;17.50;100.00;101619.03;2114535;27;46600;-57
2023/10/15 04:23:54;;;;;;;;;1.75;1.75;;;;;17.50;100.00;101616.34;2114708;27;46947;-55
2023/10/15 04:24:54;;;;;;;;;4.00;2.25;;;;;17.50;100.00;101616.34;2114235;27;46837;-58
2023/10/15 04:25:54;;;;;;;;;3.00;3.00;;;;;17.51;100.00;101624.34;2114436;27;46576;-56
2023/10/15 04:26:55;;;;;;;;;1.67;1.67;;;;;17.49;100.00;101611.91;2114417;27;46492;-57
2023/10/15 04:27:55;;;;;;;;;1.00;1.00;;;;;17.47;100.00;101617.34;2104445;28;46298;-58
2023/10/15 04:28:55;;;;;;;;;0.00;0.00;;;;;17.46;100.00;101615.59;2105492;28;46462;-55
2023/10/15 04:29:59;;;;;;;;;3.00;2.00;;;;;17.46;100.00;101620.97;2114524;27;46562;-56
2023/10/15 04:31:00;;;;;;;;;2.25;2.00;;;;;17.46;100.00;101620.97;2114460;27;46416;-57
2023/10/15 04:32:00;;;;;;;;;3.00;3.00;;;;;17.45;100.00;101621.88;2114318;27;46324;-58
2023/10/15 04:33:00;;;;;;;;;2.00;2.00;;;;;17.44;100.00;101624.63;2114504;27;45967;-58
2023/10/15 04:34:01;;;;;;;;;1.00;1.00;;;;;17.40;100.00;101628.34;2114120;27;46688;-58
2023/10/15 04:35:05;;;;;;;;;3.00;2.75;;;;;17.40;100.00;101622.97;2112100;27;48142;-57
2023/10/15 04:36:09;;;;;;;;;2.25;2.25;;;;;17.38;100.00;101623.03;2114494;27;46547;-58
2023/10/15 04:37:16;;;;;;;;;1.75;1.75;;;;;17.39;100.00;101624.78;2114424;27;46809;-58
2023/10/15 04:38:22;;;;;;;;;1.50;1.00;;;;;17.44;100.00;101617.47;2114609;27;46703;-57
2023/10/15 04:39:23;;;;;;;;;2.00;2.00;;;;;17.44;100.00;101633.56;2114870;27;46801;-57
2023/10/15 04:40:23;;;;;;;;;2.67;2.67;;;;;17.42;100.00;101632.75;2114479;27;47086;-57
2023/10/15 04:41:24;;;;;;;;;4.67;1.67;;;;;17.42;100.00;101630.06;2114143;27;46630;-58
2023/10/15 04:42:36;;;;;;;;;2.33;2.33;;;;;17.41;100.00;101630.13;2114711;27;46048;-58
2023/10/15 04:43:45;;;;;;;;;3.00;3.00;;;;;17.41;100.00;101643.53;2114508;27;46425;-55
2023/10/15 04:44:46;;;;;;;;;4.25;3.00;;;;;17.39;100.00;101646.25;2114551;27;45718;-59
2023/10/15 04:45:49;;;;;;;;;4.25;3.75;;;;;17.37;100.00;101656.16;2114453;27;46537;-57
2023/10/15 04:46:57;;;;;;;;;4.75;3.75;;;;;17.34;100.00;101656.28;2113981;27;46591;-58
2023/10/15 04:48:01;;;;;;;;;2.50;2.25;;;;;17.34;100.00;101650.91;2114164;27;46587;-55
2023/10/15 04:49:07;;;;;;;;;3.00;1.75;;;;;17.33;100.00;101652.72;2095888;28;47017;-56
2023/10/15 04:50:14;;;;;;;;;2.00;2.00;;;;;17.34;100.00;101654.47;2096624;28;46335;-58
2023/10/15 04:51:15;;;;;;;;;4.00;2.75;;;;;17.33;100.00;101652.72;2089605;28;46579;-56
2023/10/15 04:52:18;;;;;;;;;2.00;2.00;;;;;17.36;100.00;101655.28;2087651;28;46232;-55
2023/10/15 04:54:23;;;;;;;;;3.00;2.33;;;;;17.37;100.00;101650.78;2080432;28;46121;-58
2023/10/15 04:55:23;;;;;;;;;3.50;3.50;;;;;17.39;100.00;101648.94;2087888;28;46964;-54
2023/10/15 04:56:24;;;;;;;;;2.67;1.00;;;;;17.41;100.00;101647.09;2088291;28;46809;-56
2023/10/15 04:57:24;;;;;;;;;2.00;2.00;;;;;17.41;100.00;101649.78;2088303;28;46649;-55
2023/10/15 04:58:27;;;;;;;;;1.33;1.33;;;;;17.42;100.00;101654.22;2093702;28;45465;-56
2023/10/15 04:59:27;;;;;;;;;2.00;2.00;;;;;17.43;100.00;101650.59;2095431;28;46732;-56
2023/10/15 05:00:27;;;;;;;;;2.33;2.33;;;;;17.43;100.00;101649.72;2086612;28;46495;-55
2023/10/15 05:01:30;;;;;;;;;2.00;2.00;;;;;17.43;100.00;101647.91;2088342;28;46885;-58
2023/10/15 05:02:30;;;;;;;;;2.75;2.50;;;;;17.44;100.00;101640.72;2096124;28;46874;-57
2023/10/15 05:03:31;;;;;;;;;2.00;2.00;;;;;17.45;100.00;101645.16;2087759;28;46946;-56
2023/10/15 05:04:32;;;;;;;;;4.00;4.00;;;;;17.45;100.00;101647.84;2088048;28;46626;-55
2023/10/15 05:05:32;;;;;;;;;3.00;3.00;;;;;17.44;100.00;101641.59;2092777;28;46338;-57
2023/10/15 05:06:32;;;;;;;;;2.00;2.00;;;;;17.44;100.00;101640.72;2088236;28;46917;-55
2023/10/15 05:07:32;;;;;;;;;1.33;1.33;;;;;17.45;100.00;101642.47;2079741;28;46804;-57